createdAt,value
2017-10-30T00:01:57.832Z,6.3
2017-10-30T00:12:12.577Z,6.2
2017-10-30T00:22:27.700Z,6.7
2017-10-30T00:32:42.437Z,6.6
2017-10-30T00:42:57.740Z,6.4
2017-10-30T00:53:11.646Z,6.3
2017-10-30T01:03:25.650Z,6.4
2017-10-30T01:13:40.941Z,6.5
2017-10-30T01:23:55.815Z,6.8
2017-10-30T01:34:10.054Z,6.6
2017-10-30T01:44:24.913Z,6.6
2017-10-30T01:54:39.639Z,6
2017-10-30T02:04:54.057Z,5.8
2017-10-30T02:15:08.057Z,6.1
2017-10-30T02:25:21.787Z,6.4
2017-10-30T02:35:37.041Z,6.4
2017-10-30T02:45:52.173Z,6.1
2017-10-30T02:56:07.487Z,6
2017-10-30T03:06:22.466Z,5.7
2017-10-30T03:16:36.345Z,5.8
2017-10-30T03:26:50.481Z,5.7
2017-10-30T03:37:04.586Z,6.1
2017-10-30T03:47:20.096Z,6.2
2017-10-30T03:57:33.796Z,6.2
2017-10-30T04:07:47.883Z,6.3
2017-10-30T04:18:02.641Z,6.2
2017-10-30T04:28:16.336Z,6.2
2017-10-30T04:38:31.338Z,6.3
2017-10-30T04:48:46.767Z,6.3
2017-10-30T04:59:01.839Z,6.3
2017-10-30T05:09:16.310Z,6.1
2017-10-30T05:19:30.471Z,6
2017-10-30T05:29:45.081Z,6
2017-10-30T05:40:00.540Z,6.2
2017-10-30T05:50:14.836Z,6.1
2017-10-30T06:00:28.768Z,6
2017-10-30T06:10:42.652Z,6
2017-10-30T06:20:58.091Z,6
2017-10-30T06:31:13.088Z,6.6
2017-10-30T06:41:27.939Z,6.5
2017-10-30T06:51:41.839Z,6.6
2017-10-30T07:01:56.584Z,6.8
2017-10-30T07:12:10.976Z,6.9
2017-10-30T07:22:25.669Z,7.1
2017-10-30T07:32:39.863Z,7.1
2017-10-30T07:42:54.973Z,7.3
2017-10-30T07:53:09.892Z,7.4
2017-10-30T08:03:23.857Z,7.5
2017-10-30T08:13:38.593Z,8.2
2017-10-30T08:23:54.188Z,8.3
2017-10-30T08:34:09.324Z,8.2
2017-10-30T08:44:24.892Z,8.2
2017-10-30T08:54:39.659Z,8.3
2017-10-30T09:04:53.749Z,10.2
2017-10-30T09:15:09.206Z,10.9
2017-10-30T09:25:24.086Z,9.6
2017-10-30T09:35:38.694Z,9.3
2017-10-30T09:45:52.969Z,10.3
2017-10-30T09:56:17.065Z,11.3
2017-10-30T10:06:23.463Z,10.9
2017-10-30T10:16:37.850Z,10.9
2017-10-30T10:26:52.897Z,10.8
2017-10-30T10:37:08.433Z,11.4
2017-10-30T10:47:22.434Z,11.7
2017-10-30T10:57:37.340Z,12.3
2017-10-30T11:07:53.133Z,12.5
2017-10-30T11:18:08.867Z,12.7
2017-10-30T11:28:24.164Z,12.5
2017-10-30T11:38:39.832Z,12.4
2017-10-30T11:48:54.951Z,11.9
2017-10-30T11:59:08.949Z,11.5
2017-10-30T12:09:24.326Z,11
2017-10-30T12:19:38.667Z,10.8
2017-10-30T12:29:53.033Z,11.9
2017-10-30T12:40:08.645Z,12.2
2017-10-30T12:50:24.065Z,12.5
2017-10-30T13:00:38.568Z,12.7
2017-10-30T13:10:52.665Z,12.4
2017-10-30T13:21:07.633Z,11.7
2017-10-30T13:31:21.773Z,11.3
2017-10-30T13:41:36.542Z,11.4
2017-10-30T13:51:51.811Z,10.5
2017-10-30T14:02:07.485Z,10.3
2017-10-30T14:12:23.132Z,10.7
2017-10-30T14:22:38.678Z,10.6
2017-10-30T14:32:52.426Z,10.1
2017-10-30T14:43:07.426Z,9.4
2017-10-30T14:53:22.635Z,9.1
2017-10-30T15:03:36.866Z,8.9
2017-10-30T15:13:51.899Z,9
2017-10-30T15:24:05.662Z,8.9
2017-10-30T15:34:20.634Z,8.5
2017-10-30T15:44:36.267Z,8
2017-10-30T15:54:50.320Z,7.5
2017-10-30T16:05:05.644Z,7.4
2017-10-30T16:15:19.640Z,7.1
2017-10-30T16:25:33.720Z,6.9
2017-10-30T16:35:48.647Z,6.7
2017-10-30T16:46:02.724Z,6.6
2017-10-30T16:56:16.454Z,6.4
2017-10-30T17:06:30.815Z,6.2
2017-10-30T17:16:46.411Z,5.9
2017-10-30T17:27:00.153Z,5.7
2017-10-30T17:37:13.841Z,5.8
2017-10-30T17:47:28.987Z,5.6
2017-10-30T17:57:43.077Z,5.4
2017-10-30T18:07:57.880Z,5.5
2017-10-30T18:18:12.569Z,5.6
2017-10-30T18:28:26.982Z,5.9
2017-10-30T18:38:42.625Z,6.1
2017-10-30T18:48:56.934Z,6.3
2017-10-30T18:59:12.393Z,6.2
2017-10-30T19:09:26.700Z,6.2
2017-10-30T19:19:42.302Z,6.3
2017-10-30T19:29:57.559Z,6
2017-10-30T19:40:12.081Z,5.6
2017-10-30T19:50:25.828Z,5.3
2017-10-30T20:00:40.609Z,5.3
2017-10-30T20:10:54.302Z,5.6
2017-10-30T20:21:09.255Z,5.3
2017-10-30T20:31:23.959Z,5.4
2017-10-30T20:41:37.825Z,5.4
2017-10-30T20:51:52.689Z,5.1
2017-10-30T21:02:07.424Z,4.8
2017-10-30T21:12:21.133Z,4.9
2017-10-30T21:22:35.546Z,4.7
2017-10-30T21:32:50.388Z,4.7
2017-10-30T21:43:04.559Z,4.5
2017-10-30T21:53:18.281Z,4.6
2017-10-30T22:03:33.793Z,4.5
2017-10-30T22:13:49.263Z,4.3
2017-10-30T22:24:04.696Z,4.7
2017-10-30T22:34:18.384Z,4.9
2017-10-30T22:44:32.827Z,5.1
2017-10-30T22:54:47.438Z,5.4
2017-10-30T23:05:01.595Z,5.4
2017-10-30T23:15:16.283Z,5.6
2017-10-30T23:25:30.789Z,5.5
2017-10-30T23:35:45.124Z,5.3
2017-10-30T23:46:00.700Z,5.2
2017-10-30T23:56:15.847Z,5.1
